ACT        NSW        VIC        QLD        SA        WA        TAS        NT        INFO        CALC            by VK5ZD

Past Date/Time: (dd/mm/yyyy hh:mm or blank for current data)    

  Atmospheric Gas Attenuation - ITU Rec 676-11   --------------- dB/100km ---------------
WA Stations Date Time Temp RH % AH g/m3 Dew Point Wind Direction Speed kph Gust kph Barometer mB Rainfall Since 9am 24GHz 47GHz 76GHz 122GHz 134GHz 241GHz
Albany Airport 01/09 00:40 9.1 97 8.61 8.6 15 17 1021.8 5 19.8 27.7 42.7 112.0 105.5 362.5
Badgingarra 01/09 00:40 13.8 93 11.08 12.7 6 9 1013.1 0 24.9 30.1 50.2 132.2 132.6 458.2
Barimunya 01/09 00:40 22.4 32 6.35 4.9 7 9 1013.1 0 14.5 20.4 28.1 73.2 62.8 214.8
Barrow Island 01/09 00:40 23 69 14.18 17 30 35 1019.4 0 30.9 32.4 57.6 151.9 159.7 553.8
Bickley 01/09 00:40 9.9 98 9.15 9.6 17 30 1013.1 2.2 21.0 28.0 44.2 116.1 111.2 382.9
Boolgeeda 01/09 00:40 19.8 40 6.83 5.8 4 6 1020 0 15.6 21.9 30.9 80.5 70.7 242.1
Bridgetown 01/09 00:40 8 97 8.02 7.6 0 0 1023 7.6 18.6 27.0 40.8 106.9 98.7 338.6
Broome 01/09 00:40 19.8 94 16.05 18.8 0 0 1017.4 0 35.1 37.0 68.5 181.0 194.4 674.4
Bunbury 01/09 00:40 9.1 100 8.88 9.2 0 0 1023.6 2.2 20.4 28.2 43.9 115.3 109.5 376.5
Busselton Airport 01/09 00:40 7.2 100 7.85 7.2 7 11 1023.3 3.2 18.3 27.0 40.5 106.1 97.3 333.8
Cape Leeuwin 01/09 00:40 13.7 59 6.99 5.8 24 32 1022.9 6.8 16.2 23.7 34.0 88.7 78.5 268.7
Cape Naturaliste 01/09 00:40 11.8 70 7.37 6.5 19 26 1022.8 3.2 17.0 24.8 36.3 94.8 85.3 292.4
Carnarvon 01/09 00:40 18 87 13.36 15.8 17 26 1022.4 0 29.5 33.0 57.9 152.6 158.8 549.9
Christmas Creek 01/09 00:40 23.8 30 6.45 5.2 6 9 1019.3 0 14.6 20.4 28.1 73.3 63.2 216.1
Christmas Island 01/09 00:40 23.8 94 20.22 22.8 20 28 1015.9 0 43.7 43.1 84.6 223.8 248.3 862.5
Collie East 01/09 00:40 8.9 95 8.32 8.1 0 0 1013.1 2 19.2 26.9 41.1 108.0 100.9 346.6
Coondewanna 01/09 00:40 16.9 40 5.75 3.2 0 0 1013.1 0 13.4 20.8 27.9 72.7 60.3 205.4
Cunderdin Airport 01/09 00:40 11.4 96 9.86 10.8 0 0 1022.1 0.2 22.4 29.1 46.8 123.0 120.0 413.5
Curtin 01/09 00:40 19.6 63 10.63 12.4 9 11 1015.7 0 23.6 27.5 44.9 118.2 117.3 405.3
Dalwallinu 01/09 00:40 11.3 92 9.39 10 7 9 1022.3 0 21.4 28.3 44.8 117.8 113.4 390.6
Derby 01/09 00:40 20.9 64 11.65 13.8 0 0 1016.5 0 25.7 28.8 48.3 127.2 128.8 445.6
Dwellingup 01/09 00:40 9.2 94 8.4 8.3 9 13 1023.2 2.8 19.4 27.3 41.8 109.6 102.5 352.1
Eliwana Airport 01/09 00:40 20.6 47 8.41 8.9 6 6 1013.1 0 18.9 23.7 35.9 94.0 87.9 302.7
Esperance 01/09 00:40 12.7 93 10.35 11.6 28 41 1021 0.4 23.4 29.5 48.1 126.5 124.8 430.6
Esperance Airport 01/09 00:40 12.1 95 10.19 11.3 26 32 1021.3 1.2 23.1 29.4 47.8 125.7 123.5 426.0
Eucla 01/09 00:40 19.5 48 8.06 8.2 20 32 1015.2 0 18.2 23.6 35.2 92.1 85.1 292.6
Fitzroy Crossing 01/09 00:40 19.7 35 5.94 3.8 6 7 1016.5 0 13.7 20.6 27.7 72.2 60.6 206.5
Forrest 01/09 00:40 17.9 66 10.08 11.5 1016.8 0 22.5 27.2 43.7 115.0 112.7 388.9
Fortescue Dave Forrest 01/09 00:40 24.3 30 6.64 5.6 9 15 1018.5 0 15.0 20.6 28.6 74.5 64.8 221.7
Garden Island 01/09 00:40 13.6 80 9.42 10.2 22 28 1023.5 0.8 21.3 27.7 43.7 114.8 110.6 381.0
Geraldton Airport 01/09 00:40 12.6 95 10.51 11.8 13 15 1022.8 0 23.7 29.9 49.0 128.8 127.5 439.8
Gerangamete (Cfa) 01/09 02:30 3.5 100 6.15 3.5 2 4 1013.1 0 14.8 24.8 34.6 90.4 77.0 262.1
Giles* 01/09 02:20 22.5 29 5.79 3.6 7 7 1020.6 0 13.3 19.9 26.5 68.8 57.1 194.7
Gingin Airport 01/09 00:40 11.9 94 9.96 11 32 43 1023.4 0.4 22.6 29.2 47.0 123.5 120.7 416.2
Golden Grove 01/09 00:40 13.4 85 9.88 10.9 9 13 1013.1 0 22.4 28.1 45.3 119.1 116.3 401.0
Gooseberry Hill 01/09 00:40 10.1 100 9.46 10.1 7 19 1013.1 0 21.6 28.5 45.4 119.4 115.4 397.4
Gudai-Darri Mine 01/09 00:40 26 28 6.82 6.1 13 20 1013.1 0 15.3 20.3 28.4 74.1 65.0 222.9
Halls Creek 01/09 02:20 18.1 45 6.95 6 2 7 1017.6 0 15.9 22.4 31.8 83.2 73.5 251.6
Hopetoun North 01/09 00:40 12.1 92 9.87 10.8 26 37 1021.6 0.8 22.4 28.9 46.4 122.0 119.0 410.1
Iron Bridge Mine 01/09 00:40 21.1 43 7.92 8 4 6 1013.1 0 17.8 22.9 33.9 88.8 81.6 280.6
Jacup 01/09 00:40 8.3 99 8.35 8.2 11 15 1022.2 2.4 19.3 27.5 42.0 110.2 102.9 353.4
Jandakot 01/09 00:40 11.9 78 8.26 8.2 17 22 1023.3 1 18.9 26.3 39.8 104.3 97.1 333.5
Kalgoorlie-Boulder 01/09 00:40 16.1 75 10.28 11.7 15 19 1019.7 0 23.0 28.2 45.7 120.2 118.3 408.3
Kalumburu 01/09 02:20 18.5 93 14.71 17.3 0 0 1016.8 0 32.4 35.0 63.3 167.2 177.1 613.8
Karijini North 01/09 00:40 26 27 6.57 5.6 17 24 1018.4 0 14.8 20.1 27.8 72.4 62.7 214.7
Karnet 31/08 15:00 17.4 67 9.93 11.2 7 1013.1 0 22.2 27.0 43.2 113.7 111.1 383.3
Karratha 01/09 00:40 22.4 63 12.51 15 17 20 1018.9 0 27.4 29.8 51.0 134.4 137.9 477.7
Katanning Rs 01/09 00:40 8.3 95 8.01 7.5 0 0 1023 1.4 18.6 26.9 40.6 106.4 98.2 336.8
Koolan Island / Koolan Central 01/09 00:40 25.1 61 14.12 17.1 19 22 1013.1 0 30.6 31.3 55.5 146.4 153.9 533.7
Kununurra Airport 01/09 02:20 18.6 78 12.41 14.7 0 0 1016.9 0 27.4 30.9 53.0 139.7 143.3 496.0
Lake Grace 01/09 00:40 8.8 91 7.92 7.4 15 26 1022.8 0.2 18.4 26.6 40.0 104.7 96.3 330.2
Lancelin (Defence) 01/09 00:40 16.4 100 13.96 16.4 26 35 1022.4 1.4 30.9 34.7 61.9 163.2 171.3 593.2
Laverton 01/09 00:40 19.8 58 9.91 11.3 13 17 1019.5 0 22.1 26.5 42.2 110.8 108.0 372.8
Learmonth 01/09 00:40 16.6 81 11.44 13.3 13 15 1021.1 0 25.5 30.1 50.4 132.6 133.7 462.2
Legendre Island 01/09 00:40 22.8 76 15.44 18.3 24 30 1019 0 33.6 34.7 63.2 166.9 178.1 617.8
Leinster 01/09 00:40 18.5 49 7.75 7.6 13 17 1019.5 0 17.6 23.5 34.6 90.6 82.7 284.1
Leonora Airport 01/09 00:40 18.1 58 8.96 9.7 13 19 1020.1 0 20.1 25.5 39.4 103.3 98.2 338.3
Lombadina 01/09 00:40 22.7 90 18.18 21 9 13 1013.1 0 39.4 39.6 75.6 199.9 218.9 759.8
Mandora 01/09 00:40 19.5 82 13.76 16.3 9 11 1017 0 30.3 32.9 58.2 153.7 160.8 557.2
Mandurah 01/09 00:40 12.7 71 7.9 7.6 7 13 1023.4 0.6 18.1 25.5 38.0 99.4 91.3 313.4
Manjimup 01/09 00:40 8.3 99 8.35 8.2 7 9 1022.5 6 19.3 27.5 42.0 110.2 102.9 353.5
Marble Bar 01/09 00:40 23.4 31 6.52 5.3 2 4 1018.2 0 14.8 20.6 28.5 74.2 64.2 219.5
Mardie 01/09 00:40 20.8 67 12.13 14.5 9 11 1019.4 0 26.7 29.7 50.5 133.0 135.7 469.7
Meekatharra 01/09 00:40 18.9 48 7.78 7.7 19 26 1020.4 0 17.6 23.5 34.6 90.6 82.7 284.2
Millendon (Swan Valley) 01/09 00:40 12.1 79 8.47 8.6 13 20 1023.2 0.4 19.4 26.6 40.6 106.4 99.7 342.5
Morawa Airport 01/09 00:40 11.7 95 9.94 10.9 4 4 1023.1 0 22.6 29.2 47.0 123.6 120.7 416.2
Mount Keith 01/09 00:40 19.2 46 7.58 7.3 17 20 1013.1 0 17.2 22.9 33.5 87.6 79.5 273.1
Mount Magnet Airport 01/09 00:40 15.1 70 9.03 9.7 11 15 1021.8 0 20.4 26.5 41.2 108.2 103.1 355.1
Munglinup West 01/09 00:40 10.4 96 9.25 9.8 22 30 1022 1.6 21.1 28.4 44.7 117.5 112.7 388.1
Newdegate 01/09 00:40 8.3 92 7.76 7.1 20 30 1022.6 0.4 18.0 26.5 39.5 103.5 94.7 324.5
Newman Airport 01/09 00:40 18.4 38 5.98 3.8 6 6 1018.6 0 13.9 21.0 28.4 73.9 62.1 211.7
Norseman Airport 01/09 00:40 13.8 82 9.77 10.8 15 20 1019.5 0 22.1 28.1 44.9 118.0 114.8 395.7
North Island 01/09 00:40 18.3 71 11.1 13 13 15 1022.8 0 24.7 29.0 48.0 126.1 126.3 436.5
Onslow Airport 01/09 00:40 20.4 61 10.79 12.6 17 20 1020.5 0 23.9 27.7 45.3 119.3 118.6 410.0
Paraburdoo 01/09 00:40 20.9 35 6.37 4.9 9 11 1018.9 0 14.6 21.0 28.8 75.2 64.5 220.6
Pearce 01/09 00:40 11.9 82 8.69 8.9 28 35 1023 2.4 19.9 27.0 41.6 109.1 102.9 353.9
Perth 01/09 00:40 12.4 75 8.2 8.1 15 24 1023.3 2.6 18.8 26.0 39.3 103.0 95.6 328.6
Perth Airport 01/09 00:40 12.3 78 8.47 8.6 20 32 1023 1.6 19.4 26.5 40.5 106.1 99.4 341.6
Port Hedland 01/09 00:40 21 77 14.1 16.8 13 19 1018 0 30.9 33.0 58.7 154.8 162.6 563.8
Portable Btsa (Dfes) 01/09 00:30 14.9 87 11.09 12.8 4 6 1013.1 0 24.9 29.7 49.6 130.5 130.9 452.2
Portable Btsd (Dfes) 01/09 00:30 12.7 88 9.8 10.7 13 13 1013.1 0 22.2 28.2 45.4 119.3 116.2 400.8
Portable Btse (Dfes) 01/09 00:30 12.9 80 9.02 9.6 4 6 1013.1 0 20.5 26.8 42.0 110.2 105.2 362.2
Portable Btsf (Dfes) 01/09 00:00 20.8 56 10.14 11.9 11 13 1013.1 0 22.5 26.3 42.2 111.1 109.0 376.5
Portable Btsh (Dfes) 01/09 00:30 20.9 49 8.92 9.9 17 24 1013.1 0 19.9 24.4 37.6 98.7 93.7 323.1
Portable Btsj (Dfes) 01/09 00:30 11.9 82 8.69 9 6 7 1013.1 0.4 19.9 26.6 41.1 108.0 102.1 351.0
Portable Btsl (Dfes) 01/09 00:30 13.6 68 8 7.9 2 4 1013.1 0 18.3 25.0 37.5 98.3 90.8 311.8
Portable Btsm (Dfes) 01/09 00:30 21.5 36 6.79 5.8 6 9 1013.1 0 15.4 21.2 29.8 77.9 68.4 234.2
Portable Btsn (Dfes) 01/09 00:30 17.1 60 8.73 9.3 19 20 1013.1 0 19.7 25.2 38.7 101.5 96.0 330.4
Portable Btso (Dfes) 01/09 00:30 9.2 94 8.4 8.3 0 2 1013.1 3.2 19.4 26.9 41.3 108.5 101.6 349.2
Red Rocks Point 01/09 00:40 22.3 46 9.08 10.1 15 22 1014.2 0 20.2 24.3 37.6 98.6 94.1 324.5
Rocky Gully South 01/09 00:40 7 95 7.36 6.3 6 9 1013.1 6.8 17.2 25.8 38.0 99.7 89.9 307.9
Roebourne Airport 01/09 00:40 23.1 48 9.92 11.5 15 20 1018.9 0 21.9 25.5 40.5 106.3 103.7 358.0
Rottnest Island 01/09 00:40 14 80 9.65 10.6 35 43 1022.7 1 21.8 27.9 44.4 116.7 113.1 389.9
Salmon Gums Rs 01/09 00:40 14.1 92 11.17 12.8 19 33 1013.1 0 25.1 30.1 50.4 132.8 133.4 460.9
Shannon 01/09 00:40 6.4 100 7.46 6.4 9 11 1013.1 9.6 17.5 26.2 38.8 101.6 92.0 315.2
Shark Bay Airport 01/09 00:40 14.5 95 11.82 13.7 11 13 1022.4 0.2 26.4 31.5 53.5 140.9 143.1 494.8
Solomon Airport 01/09 00:40 21 39 7.14 6.5 7 9 1019.9 0 16.2 22.0 31.5 82.2 73.2 250.9
Southern Cross Airport 01/09 00:40 11.6 97 10.08 11.1 9 11 1021.5 0 22.9 29.4 47.6 125.2 122.8 423.3
Swanbourne 01/09 00:40 12.1 100 10.73 12.1 13 24 1013.1 3.8 24.3 30.1 49.8 131.0 130.5 450.5
Telfer 01/09 00:40 24.8 26 5.92 4 15 17 1017.4 0 13.5 19.5 26.1 67.8 56.8 193.6
Thevenard Island 01/09 00:40 21.6 62 11.76 14 28 33 1020.2 0 25.9 28.9 48.5 127.7 129.4 448.0
Troughton Island 01/09 02:20 24.7 78 17.65 20.6 9 11 1017 0 38.1 37.8 71.4 188.8 205.6 714.1
Truscott 01/09 02:20 20.8 94 17.02 19.8 6 6 1016.3 0 37.1 38.4 72.1 190.6 206.6 717.0
Walpole North 01/09 00:40 9.5 95 8.65 8.7 9 11 1021.7 6.6 19.9 27.6 42.6 111.9 105.5 362.6
Wandering 01/09 00:40 9.2 95 8.49 8.4 9 15 1013.1 1.6 19.6 27.1 41.7 109.5 102.9 353.6
Warburton 01/09 02:20 22.8 30 6.1 4.3 11 17 1018.5 0 13.9 20.2 27.3 71.1 60.1 205.3
West Angelas 01/09 00:40 20.7 37 6.66 5.5 7 11 1020.3 0 15.2 21.4 29.9 78.1 68.0 232.8
West Musgrave Airport 01/09 00:40 21.4 33 6.19 4.5 15 19 1013.1 0 14.2 20.4 27.9 72.7 61.8 211.2
Wiluna Airport 01/09 00:40 16.3 67 9.29 10.2 7 7 1019.7 0.2 20.9 26.5 41.6 109.1 104.8 361.0
Witchcliffe West 01/09 00:40 8.3 94 7.93 7.4 0 0 1023.1 6 18.4 26.8 40.3 105.5 97.1 332.9
Wyndham Airport 01/09 02:20 21.1 60 11.05 13 0 0 1016.5 0 24.4 27.8 45.8 120.5 120.5 416.9
Yampi Sound (Defence) 01/09 00:40 23.4 67 14.09 16.9 7 11 1020.1 0 30.7 32.1 56.9 150.2 157.7 546.9

Last Refresh: 01-Sep-2026 02:26:23

Bureau of Meteorology